createdAt,value
2019-04-14T00:04:13.981Z,45.45
2019-04-14T00:07:02.012Z,44.33
2019-04-14T00:09:50.039Z,45.58
2019-04-14T00:12:38.467Z,47.83
2019-04-14T00:15:33.861Z,45.50
2019-04-14T00:18:16.462Z,45.23
2019-04-14T00:21:04.934Z,48.23
2019-04-14T00:23:54.463Z,46.83
2019-04-14T00:26:44.388Z,43.38
2019-04-14T00:29:32.974Z,44.98
2019-04-14T00:32:02.977Z,45.53
2019-04-14T00:38:37.152Z,46.80
2019-04-14T00:44:45.657Z,46.92
2019-04-14T00:47:51.718Z,46.25
2019-04-14T00:50:29.957Z,46.80
2019-04-14T00:53:18.504Z,47.58
2019-04-14T00:56:08.352Z,47.90
2019-04-14T00:58:58.268Z,48.20
2019-04-14T01:01:48.374Z,47.60
2019-04-14T01:04:38.226Z,48.50
2019-04-14T01:07:26.856Z,47.62
2019-04-14T01:10:15.025Z,47.95
2019-04-14T01:13:03.066Z,44.40
2019-04-14T01:15:58.666Z,45.08
2019-04-14T01:18:40.835Z,47.98
2019-04-14T01:21:28.849Z,48.83
2019-04-14T01:24:18.467Z,48.63
2019-04-14T01:27:08.028Z,49.13
2019-04-14T01:29:56.641Z,48.60
2019-04-14T01:32:37.502Z,49.45
2019-04-14T01:35:18.673Z,46.53
2019-04-14T01:37:59.445Z,46.37
2019-04-14T01:40:40.244Z,46.28
2019-04-14T01:43:21.355Z,46.75
2019-04-14T01:46:13.759Z,51.13
2019-04-14T01:48:45.377Z,52.13
2019-04-14T01:54:56.872Z,51.60
2019-04-14T01:57:48.233Z,53.68
2019-04-14T02:00:49.291Z,51.68
2019-04-14T02:03:32.295Z,54.00
2019-04-14T02:06:13.712Z,52.80
2019-04-14T02:08:54.785Z,53.63
2019-04-14T02:11:35.599Z,55.12
2019-04-14T02:14:16.853Z,56.28
2019-04-14T02:17:00.736Z,59.70
2019-04-14T02:19:41.588Z,56.63
2019-04-14T02:22:22.972Z,55.28
2019-04-14T02:25:03.876Z,53.98
2019-04-14T02:27:45.057Z,57.10
2019-04-14T02:30:33.976Z,55.35
2019-04-14T02:33:40.352Z,59.03
2019-04-14T02:36:21.697Z,58.87
2019-04-14T02:41:49.309Z,57.50
2019-04-14T02:44:33.626Z,60.03
2019-04-14T02:47:18.167Z,57.33
2019-04-14T02:49:50.801Z,58.02
2019-04-14T02:52:35.513Z,58.17
2019-04-14T02:55:30.016Z,58.03
2019-04-14T02:58:03.535Z,57.17
2019-04-14T03:00:41.436Z,57.40
2019-04-14T03:06:05.383Z,63.70
2019-04-14T03:09:16.345Z,62.60
2019-04-14T03:11:31.404Z,61.23
2019-04-14T03:14:17.400Z,58.92
2019-04-14T03:23:19.408Z,62.50
2019-04-14T03:26:00.887Z,58.73
2019-04-14T03:28:44.275Z,59.07
2019-04-14T03:32:02.507Z,56.42
2019-04-14T03:37:16.371Z,58.55
2019-04-14T03:42:28.870Z,54.95
2019-04-14T03:45:07.531Z,55.75
2019-04-14T03:48:15.054Z,61.27
2019-04-14T03:55:41.588Z,58.90
2019-04-14T03:58:15.937Z,57.33
2019-04-14T04:00:45.127Z,58.60
2019-04-14T04:03:34.884Z,59.15
2019-04-14T04:06:22.979Z,56.05
2019-04-14T04:09:11.038Z,59.47
2019-04-14T04:12:00.504Z,59.63
2019-04-14T04:14:49.028Z,59.35
2019-04-14T04:17:56.380Z,56.77
2019-04-14T04:21:03.479Z,55.20
2019-04-14T04:24:10.776Z,57.67
2019-04-14T04:27:20.043Z,56.68
2019-04-14T04:30:27.666Z,57.17
2019-04-14T04:33:19.871Z,56.02
2019-04-14T04:36:07.207Z,55.45
2019-04-14T04:39:08.205Z,54.10
2019-04-14T04:41:49.458Z,54.88
2019-04-14T04:44:31.333Z,55.13
2019-04-14T04:47:12.700Z,55.52
2019-04-14T04:49:53.522Z,53.33
2019-04-14T04:52:34.468Z,54.00
2019-04-14T04:55:15.603Z,52.85
2019-04-14T04:57:44.492Z,54.27
2019-04-14T05:00:33.057Z,53.33
2019-04-14T05:03:23.249Z,54.35
2019-04-14T05:06:31.244Z,50.98
2019-04-14T05:12:58.963Z,50.33
2019-04-14T05:15:51.068Z,54.30
2019-04-14T05:18:40.131Z,53.33
2019-04-14T05:21:28.213Z,52.17
2019-04-14T05:24:16.218Z,51.37
2019-04-14T05:27:04.220Z,49.95
2019-04-14T05:29:52.189Z,48.37
2019-04-14T05:32:21.624Z,49.85
2019-04-14T05:34:52.190Z,52.78
2019-04-14T05:37:42.117Z,50.03
2019-04-14T05:40:32.169Z,49.25
2019-04-14T05:43:30.198Z,48.80
2019-04-14T05:46:12.086Z,47.35
2019-04-14T05:49:02.094Z,47.80
2019-04-14T05:51:50.855Z,47.10
2019-04-14T05:54:40.340Z,51.05
2019-04-14T05:57:28.846Z,49.27
2019-04-14T06:03:27.762Z,44.83
2019-04-14T06:06:16.819Z,45.00
2019-04-14T06:09:06.524Z,47.85
2019-04-14T06:11:54.565Z,45.55
2019-04-14T06:14:42.547Z,43.05
2019-04-14T06:17:30.635Z,47.90
2019-04-14T06:20:18.970Z,45.17
2019-04-14T06:23:06.979Z,46.75
2019-04-14T06:25:36.833Z,46.40
2019-04-14T06:28:25.256Z,44.85
2019-04-14T06:31:32.315Z,48.33
2019-04-14T06:34:17.897Z,49.13
2019-04-14T06:36:56.989Z,42.78
2019-04-14T06:39:32.100Z,43.15
2019-04-14T06:42:01.094Z,46.15
2019-04-14T06:44:30.026Z,46.55
2019-04-14T06:46:59.015Z,47.43
2019-04-14T06:49:27.985Z,41.85
2019-04-14T06:51:56.743Z,41.77
2019-04-14T06:54:25.592Z,41.80
2019-04-14T06:56:54.470Z,42.60
2019-04-14T06:59:23.351Z,41.00
2019-04-14T07:01:52.117Z,38.75
2019-04-14T07:04:20.985Z,42.23
2019-04-14T07:06:51.405Z,40.67
2019-04-14T07:09:20.735Z,39.18
2019-04-14T07:11:49.677Z,38.17
2019-04-14T07:14:18.408Z,37.03
2019-04-14T07:16:47.895Z,36.90
2019-04-14T07:19:16.776Z,37.00
2019-04-14T07:21:45.573Z,33.78
2019-04-14T07:24:14.347Z,33.73
2019-04-14T07:26:43.171Z,31.87
2019-04-14T07:29:14.641Z,31.97
2019-04-14T07:32:04.877Z,31.40
2019-04-14T07:35:05.122Z,31.77
2019-04-14T07:37:56.234Z,29.40
2019-04-14T07:40:54.029Z,30.48
2019-04-14T07:43:36.789Z,29.23
2019-04-14T07:46:10.428Z,30.00
2019-04-14T07:48:48.762Z,29.42
2019-04-14T07:51:35.718Z,26.52
2019-04-14T07:54:09.555Z,27.50
2019-04-14T07:57:06.525Z,27.65
2019-04-14T07:59:50.482Z,26.15
2019-04-14T08:02:27.448Z,26.97
2019-04-14T08:05:08.479Z,26.17
2019-04-14T08:07:37.229Z,26.30
2019-04-14T08:10:07.190Z,25.45
2019-04-14T08:12:35.976Z,25.75
2019-04-14T08:15:05.924Z,24.92
2019-04-14T08:17:34.956Z,25.55
2019-04-14T08:20:04.952Z,24.12
2019-04-14T08:22:33.988Z,24.30
2019-04-14T08:25:02.863Z,24.40
2019-04-14T08:27:32.188Z,22.77
2019-04-14T08:30:01.079Z,24.87
2019-04-14T08:32:30.013Z,24.10
2019-04-14T08:34:58.884Z,24.27
2019-04-14T08:37:27.797Z,23.92
2019-04-14T08:39:56.876Z,24.60
2019-04-14T08:42:43.942Z,23.38
2019-04-14T08:45:22.492Z,24.15
2019-04-14T08:47:57.190Z,24.65
2019-04-14T08:50:39.559Z,23.35
2019-04-14T08:53:15.681Z,24.12
2019-04-14T08:56:04.051Z,25.00
2019-04-14T08:58:48.941Z,23.73
2019-04-14T09:01:40.301Z,23.80
2019-04-14T09:04:22.953Z,22.93
2019-04-14T09:07:11.197Z,23.25
2019-04-14T09:09:42.829Z,22.60
2019-04-14T09:12:16.298Z,23.40
2019-04-14T09:14:56.150Z,22.23
2019-04-14T09:17:17.220Z,22.80
2019-04-14T09:19:47.563Z,21.90
2019-04-14T09:22:16.863Z,21.50
2019-04-14T09:24:46.500Z,21.65
2019-04-14T09:27:15.854Z,21.17
2019-04-14T09:29:45.090Z,21.05
2019-04-14T09:32:14.788Z,21.35
2019-04-14T09:34:43.789Z,21.23
2019-04-14T09:37:13.018Z,20.97
2019-04-14T09:39:41.754Z,20.72
2019-04-14T09:42:10.540Z,20.85
2019-04-14T09:44:40.115Z,19.98
2019-04-14T09:47:09.394Z,20.00
2019-04-14T09:49:38.772Z,21.30
2019-04-14T09:52:08.274Z,20.00
2019-04-14T09:54:37.514Z,20.03
2019-04-14T09:57:06.676Z,19.73
2019-04-14T09:59:35.481Z,20.48
2019-04-14T10:02:06.904Z,19.97
2019-04-14T10:04:35.780Z,19.60
2019-04-14T10:07:05.025Z,19.37
2019-04-14T10:09:34.029Z,20.30
2019-04-14T10:12:02.808Z,20.20
2019-04-14T10:14:31.892Z,19.77
2019-04-14T10:17:01.438Z,20.25
2019-04-14T10:19:31.612Z,19.95
2019-04-14T10:22:00.695Z,19.15
2019-04-14T10:24:29.787Z,18.55
2019-04-14T10:26:59.581Z,18.77
2019-04-14T10:29:28.708Z,19.65
2019-04-14T10:31:57.498Z,19.32
2019-04-14T10:34:26.272Z,19.87
2019-04-14T10:36:55.027Z,20.00
2019-04-14T10:39:23.861Z,19.60
2019-04-14T10:41:52.608Z,20.12
2019-04-14T10:44:24.057Z,19.82
2019-04-14T10:46:52.825Z,19.30
2019-04-14T10:49:22.128Z,19.65
2019-04-14T10:51:51.227Z,18.55
2019-04-14T10:54:20.571Z,17.42
2019-04-14T10:56:50.909Z,18.85
2019-04-14T10:59:20.116Z,18.52
2019-04-14T11:01:49.277Z,18.70
2019-04-14T11:04:18.296Z,18.62
2019-04-14T11:07:08.514Z,20.02
2019-04-14T11:09:37.830Z,20.63
2019-04-14T11:12:07.400Z,20.10
2019-04-14T11:14:36.489Z,19.82
2019-04-14T11:17:05.408Z,20.02
2019-04-14T11:19:34.577Z,19.85
2019-04-14T11:22:03.339Z,19.67
2019-04-14T11:24:32.312Z,20.37
2019-04-14T11:27:01.288Z,19.43
2019-04-14T11:29:30.564Z,19.00
2019-04-14T11:32:15.757Z,18.85
2019-04-14T11:34:50.538Z,18.70
2019-04-14T11:37:37.173Z,18.25
2019-04-14T11:40:08.566Z,19.80
2019-04-14T11:42:37.534Z,19.12
2019-04-14T11:45:06.521Z,19.05
2019-04-14T11:47:35.497Z,18.07
2019-04-14T11:50:04.941Z,18.70
2019-04-14T11:52:35.742Z,18.75
2019-04-14T11:55:05.234Z,19.25
2019-04-14T11:57:34.298Z,18.37
2019-04-14T12:00:14.864Z,18.45
2019-04-14T12:03:08.960Z,17.98
2019-04-14T12:06:02.754Z,18.80
2019-04-14T12:08:45.719Z,18.80
2019-04-14T12:11:14.796Z,18.12
2019-04-14T12:13:43.952Z,18.30
2019-04-14T12:16:13.083Z,18.48
2019-04-14T12:18:42.140Z,18.92
2019-04-14T12:21:10.967Z,17.75
2019-04-14T12:23:43.700Z,18.20
2019-04-14T12:26:13.240Z,18.80
2019-04-14T12:28:43.226Z,18.27
2019-04-14T12:31:13.361Z,18.23
2019-04-14T12:33:43.958Z,18.23
2019-04-14T12:36:14.666Z,18.07
2019-04-14T12:38:43.917Z,18.07
2019-04-14T12:41:17.956Z,18.40
2019-04-14T12:43:56.580Z,17.55
2019-04-14T12:46:56.798Z,19.35
2019-04-14T12:49:30.214Z,17.80
2019-04-14T12:52:21.442Z,17.32
2019-04-14T12:54:49.617Z,17.73
2019-04-14T12:57:25.085Z,17.83
2019-04-14T12:59:54.492Z,17.55
2019-04-14T13:02:30.095Z,17.50
2019-04-14T13:04:58.913Z,17.92
2019-04-14T13:07:27.833Z,18.03
2019-04-14T13:09:56.765Z,17.30
2019-04-14T13:12:25.596Z,17.40
2019-04-14T13:14:54.725Z,18.40
2019-04-14T13:17:23.777Z,19.30
2019-04-14T13:19:52.902Z,17.75
2019-04-14T13:22:33.224Z,18.80
2019-04-14T13:24:52.783Z,17.42
2019-04-14T13:27:23.248Z,18.50
2019-04-14T13:29:52.694Z,17.85
2019-04-14T13:32:40.703Z,19.00
2019-04-14T13:35:21.944Z,18.45
2019-04-14T13:38:02.754Z,18.60
2019-04-14T13:40:43.247Z,18.30
2019-04-14T13:43:23.809Z,18.40
2019-04-14T13:46:04.181Z,18.02
2019-04-14T13:48:44.775Z,18.32
2019-04-14T13:51:25.782Z,17.85
2019-04-14T13:54:06.355Z,17.85
2019-04-14T13:56:47.280Z,17.85
2019-04-14T13:59:28.265Z,17.40
2019-04-14T14:02:09.857Z,18.40
2019-04-14T14:04:52.247Z,18.42
2019-04-14T14:07:33.033Z,18.05
2019-04-14T14:10:14.259Z,16.90
2019-04-14T14:12:59.247Z,16.62
2019-04-14T14:15:47.347Z,17.05
2019-04-14T14:18:54.727Z,17.37
2019-04-14T14:22:02.237Z,16.63
2019-04-14T14:28:22.576Z,16.35
2019-04-14T14:31:10.828Z,16.52
2019-04-14T14:33:52.055Z,16.00
2019-04-14T14:36:32.515Z,16.00
2019-04-14T14:39:14.972Z,15.85
2019-04-14T14:41:55.883Z,15.68
2019-04-14T14:50:45.229Z,14.98
2019-04-14T14:53:25.909Z,14.28
2019-04-14T14:56:06.792Z,14.00
2019-04-14T14:58:48.005Z,14.00
2019-04-14T15:01:29.042Z,14.40
2019-04-14T15:04:09.766Z,13.32
2019-04-14T15:06:50.540Z,12.63
2019-04-14T15:09:31.311Z,12.98
2019-04-14T15:12:12.248Z,12.60
2019-04-14T15:14:53.148Z,13.13
2019-04-14T15:17:33.530Z,12.95
2019-04-14T15:20:14.575Z,12.78
2019-04-14T15:22:55.512Z,12.35
2019-04-14T15:25:36.553Z,12.68
2019-04-14T15:28:17.496Z,12.68
2019-04-14T15:30:58.252Z,13.05
2019-04-14T15:33:39.371Z,12.03
2019-04-14T15:36:20.388Z,13.00
2019-04-14T15:39:01.252Z,11.87
2019-04-14T15:41:42.515Z,12.43
2019-04-14T15:44:22.807Z,12.40
2019-04-14T15:47:03.547Z,12.93
2019-04-14T15:49:44.448Z,12.85
2019-04-14T15:52:25.672Z,12.70
2019-04-14T15:55:06.323Z,12.03
2019-04-14T16:01:02.563Z,11.90
2019-04-14T16:03:51.152Z,11.83
2019-04-14T16:06:50.850Z,15.80
2019-04-14T16:09:44.714Z,13.88
2019-04-14T16:15:30.495Z,12.63
2019-04-14T16:18:30.828Z,13.03
2019-04-14T16:21:11.959Z,12.90
2019-04-14T16:23:52.774Z,12.68
2019-04-14T16:29:56.570Z,12.68
2019-04-14T16:32:56.635Z,14.73
2019-04-14T16:35:37.231Z,14.20
2019-04-14T16:38:17.607Z,13.00
2019-04-14T16:40:58.263Z,12.78
2019-04-14T16:43:39.330Z,12.80
2019-04-14T16:46:19.902Z,12.55
2019-04-14T16:49:00.631Z,12.90
2019-04-14T16:51:46.227Z,12.43
2019-04-14T16:54:46.429Z,12.60
2019-04-14T16:57:46.483Z,12.18
2019-04-14T17:00:31.629Z,12.33
2019-04-14T17:03:13.095Z,12.28
2019-04-14T17:05:53.760Z,12.27
2019-04-14T17:08:34.449Z,12.43
2019-04-14T17:11:15.209Z,12.30
2019-04-14T17:14:01.516Z,12.35
2019-04-14T17:17:01.528Z,12.20
2019-04-14T17:20:03.829Z,12.07
2019-04-14T17:22:55.126Z,12.13
2019-04-14T17:25:41.479Z,12.35
2019-04-14T17:28:27.497Z,12.50
2019-04-14T17:31:26.957Z,12.30
2019-04-14T17:34:22.752Z,12.40
2019-04-14T17:37:11.883Z,12.65
2019-04-14T17:40:00.456Z,12.47
2019-04-14T17:42:46.623Z,12.55
2019-04-14T17:45:46.163Z,12.68
2019-04-14T17:48:45.571Z,12.40
2019-04-14T17:51:33.291Z,13.05
2019-04-14T17:54:33.305Z,12.25
2019-04-14T17:57:32.991Z,12.68
2019-04-14T18:00:18.611Z,12.80
2019-04-14T18:03:18.544Z,12.70
2019-04-14T18:06:04.751Z,12.57
2019-04-14T18:09:05.861Z,12.40
2019-04-14T18:11:56.003Z,12.43
2019-04-14T18:14:55.635Z,12.28
2019-04-14T18:17:58.004Z,12.28
2019-04-14T18:20:42.396Z,12.17
2019-04-14T18:23:22.760Z,11.85
2019-04-14T18:26:03.040Z,11.60
2019-04-14T18:29:02.872Z,11.90
2019-04-14T18:32:08.657Z,12.37
2019-04-14T18:35:10.964Z,11.93
2019-04-14T18:38:10.975Z,11.60
2019-04-14T18:40:58.787Z,11.88
2019-04-14T18:44:05.847Z,11.88
2019-04-14T18:47:12.894Z,11.63
2019-04-14T18:50:20.372Z,11.57
2019-04-14T18:53:12.559Z,11.60
2019-04-14T18:56:15.071Z,11.83
2019-04-14T18:59:22.143Z,12.40
2019-04-14T19:02:12.244Z,12.47
2019-04-14T19:05:00.254Z,11.97
2019-04-14T19:07:48.215Z,12.53
2019-04-14T19:10:36.211Z,12.18
2019-04-14T19:22:26.159Z,12.50
2019-04-14T19:25:14.238Z,12.23
2019-04-14T19:28:02.212Z,12.15
2019-04-14T19:30:50.632Z,11.03
2019-04-14T19:33:38.632Z,10.82
2019-04-14T19:36:26.720Z,10.95
2019-04-14T19:39:14.700Z,9.73
2019-04-14T19:42:02.716Z,9.80
2019-04-14T19:44:50.919Z,9.35
2019-04-14T19:47:38.958Z,9.10
2019-04-14T19:50:26.920Z,9.15
2019-04-14T19:53:15.088Z,8.75
2019-04-14T19:56:03.108Z,8.85
2019-04-14T19:58:51.123Z,8.75
2019-04-14T20:01:39.130Z,8.68
2019-04-14T20:04:27.191Z,8.80
2019-04-14T20:07:15.327Z,8.28
2019-04-14T20:10:03.411Z,8.60
2019-04-14T20:12:51.583Z,9.00
2019-04-14T20:15:58.644Z,8.30
2019-04-14T20:19:10.536Z,8.37
2019-04-14T20:22:14.457Z,8.45
2019-04-14T20:25:33.154Z,8.53
2019-04-14T20:28:30.625Z,8.38
2019-04-14T20:31:37.897Z,8.20
2019-04-14T20:34:19.300Z,7.73
2019-04-14T20:36:59.833Z,7.83
2019-04-14T20:42:52.912Z,8.18
2019-04-14T20:45:33.724Z,7.80
2019-04-14T20:48:14.601Z,8.30
2019-04-14T20:50:55.412Z,8.05
2019-04-14T20:53:36.140Z,8.25
2019-04-14T20:56:16.909Z,7.80
2019-04-14T20:58:57.624Z,8.20
2019-04-14T21:01:41.842Z,7.97
2019-04-14T21:07:53.273Z,7.90
2019-04-14T21:10:41.943Z,8.18
2019-04-14T21:13:41.568Z,7.80
2019-04-14T21:16:19.714Z,8.25
2019-04-14T21:19:12.384Z,7.87
2019-04-14T21:22:19.509Z,7.90
2019-04-14T21:25:26.676Z,8.65
2019-04-14T21:28:21.528Z,8.15
2019-04-14T21:31:28.888Z,7.83
2019-04-14T21:34:13.005Z,8.20
2019-04-14T21:37:13.342Z,7.92
2019-04-14T21:40:12.898Z,7.83
2019-04-14T21:42:53.574Z,8.48
2019-04-14T21:45:34.309Z,8.60
2019-04-14T21:48:15.201Z,8.73
2019-04-14T21:50:56.265Z,9.13
2019-04-14T21:53:37.085Z,8.95
2019-04-14T21:56:13.280Z,8.68
2019-04-14T21:59:14.752Z,8.95
2019-04-14T22:02:21.868Z,9.23
2019-04-14T22:08:25.040Z,9.20
2019-04-14T22:11:00.062Z,9.60
2019-04-14T22:13:28.868Z,9.43
2019-04-14T22:16:16.856Z,9.60
2019-04-14T22:19:04.852Z,10.15
2019-04-14T22:21:52.847Z,10.08
2019-04-14T22:24:40.836Z,10.23
2019-04-14T22:27:28.871Z,10.90
2019-04-14T22:30:16.955Z,10.08
2019-04-14T22:33:05.092Z,11.05
2019-04-14T22:35:46.189Z,10.63
2019-04-14T22:38:26.857Z,11.25
2019-04-14T22:41:07.632Z,10.48
2019-04-14T22:43:48.616Z,11.27
2019-04-14T22:46:28.939Z,10.78
2019-04-14T22:49:09.659Z,10.78
2019-04-14T22:51:50.389Z,10.80
2019-04-14T22:54:31.315Z,10.40
2019-04-14T22:57:12.088Z,10.50
2019-04-14T22:59:53.213Z,10.40
2019-04-14T23:02:52.947Z,10.85
2019-04-14T23:05:52.579Z,10.40
2019-04-14T23:08:52.490Z,10.15
2019-04-14T23:11:52.463Z,10.45
2019-04-14T23:14:40.000Z,10.43
2019-04-14T23:17:40.144Z,10.80
2019-04-14T23:20:26.246Z,10.82
2019-04-14T23:23:25.670Z,11.08
2019-04-14T23:26:06.736Z,10.73
2019-04-14T23:28:47.639Z,10.58
2019-04-14T23:31:28.554Z,11.38
2019-04-14T23:34:09.013Z,11.35
2019-04-14T23:36:49.693Z,11.57
2019-04-14T23:39:30.324Z,12.68
2019-04-14T23:42:11.059Z,11.88
2019-04-14T23:44:51.669Z,12.25
2019-04-14T23:47:32.780Z,12.63
2019-04-14T23:50:13.580Z,12.53
2019-04-14T23:52:54.386Z,12.30
2019-04-14T23:55:35.315Z,13.00
2019-04-14T23:58:16.324Z,13.23
